createdAt,value
2018-11-12T00:00:18.275Z,95.40
2018-11-12T00:02:49.414Z,96.00
2018-11-12T00:05:19.124Z,96.00
2018-11-12T00:07:48.096Z,95.90
2018-11-12T00:10:16.889Z,95.90
2018-11-12T00:12:45.692Z,95.90
2018-11-12T00:15:14.773Z,95.80
2018-11-12T00:17:43.521Z,95.80
2018-11-12T00:20:13.717Z,95.80
2018-11-12T00:22:42.972Z,95.80
2018-11-12T00:25:11.844Z,95.70
2018-11-12T00:27:41.040Z,95.80
2018-11-12T00:30:13.337Z,95.80
2018-11-12T00:32:42.764Z,95.80
2018-11-12T00:35:12.119Z,95.80
2018-11-12T00:37:42.140Z,95.90
2018-11-12T00:40:15.649Z,96.00
2018-11-12T00:42:45.285Z,96.00
2018-11-12T00:45:14.686Z,96.10
2018-11-12T00:47:43.744Z,96.20
2018-11-12T00:50:13.806Z,96.30
2018-11-12T00:52:42.602Z,96.20
2018-11-12T00:55:12.828Z,96.30
2018-11-12T00:57:42.052Z,96.40
2018-11-12T01:00:13.629Z,96.50
2018-11-12T01:02:44.651Z,96.40
2018-11-12T01:05:14.224Z,96.40
2018-11-12T01:07:44.175Z,96.30
2018-11-12T01:10:14.216Z,96.40
2018-11-12T01:12:44.353Z,96.40
2018-11-12T01:15:14.610Z,96.50
2018-11-12T01:17:43.485Z,96.50
2018-11-12T01:20:15.478Z,96.50
2018-11-12T01:22:44.368Z,96.50
2018-11-12T01:25:13.837Z,96.50
2018-11-12T01:27:43.267Z,96.50
2018-11-12T01:30:13.768Z,96.40
2018-11-12T01:32:42.876Z,96.60
2018-11-12T01:35:12.850Z,96.60
2018-11-12T01:37:41.648Z,96.60
2018-11-12T01:40:11.404Z,96.50
2018-11-12T01:42:40.304Z,96.40
2018-11-12T01:45:11.055Z,96.50
2018-11-12T01:47:40.422Z,96.40
2018-11-12T01:50:10.267Z,96.50
2018-11-12T01:52:39.077Z,96.50
2018-11-12T01:55:09.127Z,96.60
2018-11-12T01:57:37.939Z,96.50
2018-11-12T02:00:13.566Z,96.50
2018-11-12T02:02:43.101Z,96.50
2018-11-12T02:05:11.865Z,96.60
2018-11-12T02:07:40.634Z,96.50
2018-11-12T02:10:11.217Z,96.50
2018-11-12T02:12:40.401Z,96.50
2018-11-12T02:15:11.659Z,96.50
2018-11-12T02:17:40.496Z,96.50
2018-11-12T02:20:11.082Z,96.40
2018-11-12T02:22:39.856Z,96.40
2018-11-12T02:25:09.696Z,96.70
2018-11-12T02:27:38.537Z,96.40
2018-11-12T02:30:10.865Z,96.40
2018-11-12T02:35:36.556Z,96.70
2018-11-12T02:38:05.440Z,96.60
2018-11-12T02:40:35.205Z,96.60
2018-11-12T02:43:04.073Z,96.50
2018-11-12T02:45:32.858Z,96.50
2018-11-12T02:48:21.078Z,96.40
2018-11-12T02:50:50.844Z,96.40
2018-11-12T02:53:19.691Z,96.40
2018-11-12T02:55:54.751Z,96.40
2018-11-12T02:58:40.313Z,96.40
2018-11-12T03:01:09.345Z,96.40
2018-11-12T03:03:38.435Z,96.40
2018-11-12T03:06:07.668Z,96.40
2018-11-12T03:08:52.023Z,96.40
2018-11-12T03:11:25.537Z,96.40
2018-11-12T03:13:55.104Z,96.40
2018-11-12T03:16:26.097Z,96.40
2018-11-12T03:18:56.823Z,96.40
2018-11-12T03:21:25.849Z,96.30
2018-11-12T03:26:47.820Z,96.40
2018-11-12T03:29:22.881Z,96.40
2018-11-12T03:32:03.569Z,96.40
2018-11-12T03:34:33.139Z,96.60
2018-11-12T03:38:00.791Z,96.60
2018-11-12T03:40:29.952Z,96.60
2018-11-12T03:42:59.997Z,96.90
2018-11-12T03:45:29.210Z,96.80
2018-11-12T03:47:59.808Z,96.70
2018-11-12T03:50:30.009Z,96.70
2018-11-12T03:53:01.272Z,96.70
2018-11-12T03:55:34.996Z,96.70
2018-11-12T03:58:03.693Z,96.60
2018-11-12T04:00:33.813Z,96.70
2018-11-12T04:03:02.874Z,96.70
2018-11-12T04:05:35.506Z,96.80
2018-11-12T04:08:06.515Z,96.70
2018-11-12T04:10:35.271Z,96.70
2018-11-12T04:13:05.037Z,96.80
2018-11-12T04:18:24.358Z,96.90
2018-11-12T04:20:53.072Z,97.00
2018-11-12T04:23:21.804Z,97.00
2018-11-12T04:25:50.589Z,97.00
2018-11-12T04:28:19.272Z,97.00
2018-11-12T04:30:48.301Z,96.90
2018-11-12T04:33:17.041Z,96.70
2018-11-12T04:35:45.727Z,96.40
2018-11-12T04:38:14.452Z,96.20
2018-11-12T04:40:43.246Z,96.10
2018-11-12T04:43:12.106Z,96.00
2018-11-12T04:45:40.901Z,96.00
2018-11-12T04:48:09.758Z,96.00
2018-11-12T04:50:38.518Z,96.20
2018-11-12T04:53:07.236Z,96.00
2018-11-12T04:55:36.193Z,96.00
2018-11-12T04:58:05.002Z,96.00
2018-11-12T05:00:33.723Z,95.80
2018-11-12T05:03:02.620Z,95.60
2018-11-12T05:05:31.401Z,95.80
2018-11-12T05:08:00.177Z,95.80
2018-11-12T05:10:28.967Z,95.70
2018-11-12T05:12:57.718Z,95.70
2018-11-12T05:15:26.982Z,95.60
2018-11-12T05:17:55.937Z,95.70
2018-11-12T05:20:26.943Z,95.70
2018-11-12T05:22:55.793Z,95.60
2018-11-12T05:25:24.638Z,95.50
2018-11-12T05:27:53.350Z,95.40
2018-11-12T05:30:27.145Z,95.70
2018-11-12T05:32:56.142Z,95.50
2018-11-12T05:35:26.103Z,95.60
2018-11-12T05:37:54.887Z,95.60
2018-11-12T05:40:24.884Z,95.50
2018-11-12T05:42:53.752Z,95.30
2018-11-12T05:45:24.590Z,95.30
2018-11-12T05:47:53.374Z,95.20
2018-11-12T05:50:24.417Z,95.10
2018-11-12T05:52:54.580Z,95.10
2018-11-12T05:55:24.566Z,95.10
2018-11-12T05:57:53.359Z,95.00
2018-11-12T06:00:24.192Z,94.90
2018-11-12T06:02:53.042Z,94.70
2018-11-12T06:05:21.785Z,94.50
2018-11-12T06:07:50.591Z,94.40
2018-11-12T06:10:20.613Z,93.80
2018-11-12T06:12:49.604Z,93.80
2018-11-12T06:15:18.728Z,93.80
2018-11-12T06:17:48.228Z,93.90
2018-11-12T06:20:19.118Z,94.00
2018-11-12T06:22:47.989Z,94.10
2018-11-12T06:25:18.192Z,94.20
2018-11-12T06:27:47.113Z,94.20
2018-11-12T06:30:20.073Z,93.70
2018-11-12T06:32:48.965Z,93.40
2018-11-12T06:35:18.249Z,93.70
2018-11-12T06:37:48.865Z,93.80
2018-11-12T06:40:18.908Z,93.90
2018-11-12T06:42:49.022Z,93.60
2018-11-12T06:45:26.030Z,93.60
2018-11-12T06:47:55.584Z,93.60
2018-11-12T06:50:25.833Z,93.70
2018-11-12T06:52:55.032Z,93.10
2018-11-12T06:55:24.903Z,93.20
2018-11-12T06:57:55.102Z,93.20
2018-11-12T07:00:26.634Z,93.30
2018-11-12T07:02:56.416Z,93.00
2018-11-12T07:05:25.526Z,92.80
2018-11-12T07:07:54.265Z,93.10
2018-11-12T07:10:25.314Z,93.20
2018-11-12T07:12:54.789Z,93.30
2018-11-12T07:15:24.933Z,93.10
2018-11-12T07:17:54.750Z,91.80
2018-11-12T07:20:24.609Z,89.20
2018-11-12T07:22:53.669Z,87.10
2018-11-12T07:25:24.201Z,84.60
2018-11-12T07:27:52.981Z,82.10
2018-11-12T07:30:24.109Z,78.90
2018-11-12T07:32:53.877Z,77.90
2018-11-12T07:35:23.134Z,74.80
2018-11-12T07:37:53.033Z,71.70
2018-11-12T07:40:22.221Z,70.40
2018-11-12T07:42:50.982Z,70.90
2018-11-12T07:45:24.121Z,72.20
2018-11-12T07:47:53.803Z,73.00
2018-11-12T07:50:23.837Z,72.00
2018-11-12T07:52:52.712Z,72.50
2018-11-12T07:55:22.869Z,73.30
2018-11-12T07:57:52.780Z,72.50
2018-11-12T08:00:26.803Z,72.70
2018-11-12T08:02:59.767Z,71.20
2018-11-12T08:05:28.545Z,68.50
2018-11-12T08:07:57.327Z,65.00
2018-11-12T08:10:26.196Z,64.70
2018-11-12T08:12:55.108Z,63.20
2018-11-12T08:15:23.964Z,59.70
2018-11-12T08:17:53.024Z,58.50
2018-11-12T08:20:24.035Z,56.40
2018-11-12T08:22:53.177Z,54.90
2018-11-12T08:25:22.061Z,51.90
2018-11-12T08:27:52.012Z,48.80
2018-11-12T08:30:22.019Z,46.40
2018-11-12T08:32:52.223Z,43.10
2018-11-12T08:35:20.997Z,42.30
2018-11-12T08:37:50.205Z,41.60
2018-11-12T08:40:20.141Z,42.50
2018-11-12T08:42:48.984Z,44.10
2018-11-12T08:45:18.915Z,45.30
2018-11-12T08:47:49.257Z,45.90
2018-11-12T08:50:20.536Z,45.40
2018-11-12T08:52:50.267Z,45.60
2018-11-12T08:55:22.447Z,44.60
2018-11-12T08:57:53.376Z,45.60
2018-11-12T09:00:23.209Z,46.40
2018-11-12T09:02:52.098Z,44.80
2018-11-12T09:05:28.757Z,43.80
2018-11-12T09:07:59.022Z,43.20
2018-11-12T09:10:30.157Z,42.70
2018-11-12T09:12:58.946Z,41.50
2018-11-12T09:15:27.951Z,41.90
2018-11-12T09:17:57.893Z,41.80
2018-11-12T09:20:27.918Z,42.70
2018-11-12T09:22:56.996Z,44.20
2018-11-12T09:25:26.976Z,46.20
2018-11-12T09:27:55.816Z,47.50
2018-11-12T09:30:26.160Z,47.80
2018-11-12T09:32:54.971Z,50.00
2018-11-12T09:35:24.900Z,51.10
2018-11-12T09:37:54.527Z,53.60
2018-11-12T09:40:25.807Z,54.00
2018-11-12T09:42:54.795Z,54.60
2018-11-12T09:45:24.609Z,54.30
2018-11-12T09:47:53.476Z,54.70
2018-11-12T09:50:23.402Z,53.80
2018-11-12T09:52:53.284Z,53.10
2018-11-12T09:55:23.253Z,53.00
2018-11-12T09:57:54.545Z,53.70
2018-11-12T10:00:23.910Z,52.60
2018-11-12T10:02:53.358Z,51.40
2018-11-12T10:05:22.289Z,50.00
2018-11-12T10:07:55.166Z,49.60
2018-11-12T10:10:36.067Z,48.80
2018-11-12T10:13:04.867Z,50.10
2018-11-12T10:15:34.738Z,50.80
2018-11-12T10:18:03.797Z,50.40
2018-11-12T10:20:29.726Z,50.50
2018-11-12T10:22:58.492Z,51.00
2018-11-12T10:25:27.420Z,51.00
2018-11-12T10:27:56.149Z,50.00
2018-11-12T10:30:25.048Z,50.90
2018-11-12T10:32:53.938Z,49.60
2018-11-12T10:35:22.816Z,49.90
2018-11-12T10:37:51.568Z,51.50
2018-11-12T10:40:21.572Z,52.60
2018-11-12T10:42:50.426Z,52.70
2018-11-12T10:45:19.358Z,52.30
2018-11-12T10:47:49.333Z,52.60
2018-11-12T10:50:20.951Z,53.20
2018-11-12T10:52:49.813Z,53.80
2018-11-12T10:55:22.071Z,54.40
2018-11-12T10:57:51.146Z,55.20
2018-11-12T11:00:29.296Z,55.80
2018-11-12T11:03:05.467Z,56.00
2018-11-12T11:05:34.830Z,56.50
2018-11-12T11:08:04.116Z,56.50
2018-11-12T11:10:33.151Z,57.30
2018-11-12T11:13:03.213Z,58.20
2018-11-12T11:15:32.936Z,59.40
2018-11-12T11:18:01.907Z,59.40
2018-11-12T11:20:30.984Z,59.60
2018-11-12T11:23:00.186Z,60.30
2018-11-12T11:25:29.350Z,61.20
2018-11-12T11:27:58.344Z,61.90
2018-11-12T11:30:27.441Z,62.30
2018-11-12T11:32:56.535Z,62.00
2018-11-12T11:35:26.587Z,62.20
2018-11-12T11:37:55.701Z,62.50
2018-11-12T11:40:26.005Z,63.30
2018-11-12T11:42:54.878Z,63.30
2018-11-12T11:45:23.971Z,64.20
2018-11-12T11:47:53.597Z,64.30
2018-11-12T11:50:24.089Z,64.60
2018-11-12T11:52:52.823Z,64.00
2018-11-12T11:55:22.869Z,64.50
2018-11-12T11:57:52.141Z,64.70
2018-11-12T12:00:23.394Z,64.70
2018-11-12T12:02:53.288Z,65.80
2018-11-12T12:05:23.062Z,64.70
2018-11-12T12:07:54.845Z,64.20
2018-11-12T12:10:23.911Z,64.90
2018-11-12T12:12:53.331Z,64.50
2018-11-12T12:15:23.082Z,64.40
2018-11-12T12:17:52.240Z,64.20
2018-11-12T12:20:26.361Z,64.20
2018-11-12T12:22:55.661Z,63.30
2018-11-12T12:25:24.876Z,63.80
2018-11-12T12:27:54.102Z,63.00
2018-11-12T12:30:24.442Z,63.50
2018-11-12T12:32:54.502Z,63.10
2018-11-12T12:35:23.583Z,63.00
2018-11-12T12:37:52.753Z,62.70
2018-11-12T12:40:22.783Z,62.00
2018-11-12T12:42:51.894Z,63.40
2018-11-12T12:45:22.489Z,62.90
2018-11-12T12:47:51.821Z,62.90
2018-11-12T12:50:21.001Z,63.10
2018-11-12T12:52:49.955Z,62.50
2018-11-12T12:55:19.275Z,62.40
2018-11-12T12:57:48.501Z,62.60
2018-11-12T13:00:19.528Z,63.40
2018-11-12T13:02:48.758Z,63.50
2018-11-12T13:05:18.018Z,63.20
2018-11-12T13:07:46.991Z,64.20
2018-11-12T13:10:17.733Z,64.10
2018-11-12T13:12:47.028Z,64.10
2018-11-12T13:15:17.502Z,64.20
2018-11-12T13:17:47.405Z,64.50
2018-11-12T13:20:18.151Z,64.70
2018-11-12T13:22:47.942Z,64.70
2018-11-12T13:25:17.540Z,65.00
2018-11-12T13:27:47.320Z,64.60
2018-11-12T13:30:20.024Z,65.00
2018-11-12T13:32:49.154Z,64.80
2018-11-12T13:35:19.877Z,64.60
2018-11-12T13:37:50.963Z,64.40
2018-11-12T13:40:22.154Z,64.10
2018-11-12T13:42:53.656Z,65.10
2018-11-12T13:45:22.972Z,65.10
2018-11-12T13:47:51.998Z,65.50
2018-11-12T13:50:22.176Z,67.50
2018-11-12T13:52:51.824Z,69.20
2018-11-12T13:55:21.948Z,69.90
2018-11-12T13:57:51.137Z,70.40
2018-11-12T14:00:26.478Z,70.80
2018-11-12T14:02:55.992Z,71.50
2018-11-12T14:05:26.119Z,71.30
2018-11-12T14:07:55.140Z,72.00
2018-11-12T14:10:29.429Z,70.70
2018-11-12T14:12:59.108Z,70.90
2018-11-12T14:15:28.164Z,71.70
2018-11-12T14:17:57.573Z,71.50
2018-11-12T14:20:27.030Z,71.90
2018-11-12T14:22:56.895Z,73.70
2018-11-12T14:25:26.219Z,74.70
2018-11-12T14:27:57.109Z,76.00
2018-11-12T14:30:28.245Z,76.30
2018-11-12T14:32:57.252Z,76.90
2018-11-12T14:35:26.567Z,76.90
2018-11-12T14:37:55.482Z,77.00
2018-11-12T14:40:24.536Z,77.20
2018-11-12T14:42:53.546Z,77.70
2018-11-12T14:45:23.700Z,78.50
2018-11-12T14:47:52.853Z,78.30
2018-11-12T14:50:21.833Z,78.40
2018-11-12T14:52:50.712Z,78.30
2018-11-12T14:55:19.796Z,78.50
2018-11-12T14:57:48.788Z,78.80
2018-11-12T15:00:21.682Z,79.80
2018-11-12T15:02:50.856Z,80.30
2018-11-12T15:05:21.055Z,80.60
2018-11-12T15:07:50.072Z,81.10
2018-11-12T15:10:20.189Z,81.20
2018-11-12T15:12:49.875Z,81.50
2018-11-12T15:15:19.298Z,81.50
2018-11-12T15:17:48.397Z,81.90
2018-11-12T15:20:18.824Z,82.30
2018-11-12T15:22:47.939Z,82.60
2018-11-12T15:25:22.339Z,83.00
2018-11-12T15:27:51.412Z,83.50
2018-11-12T15:30:22.571Z,83.70
2018-11-12T15:32:52.664Z,83.80
2018-11-12T15:35:23.103Z,83.80
2018-11-12T15:37:53.220Z,84.10
2018-11-12T15:40:23.342Z,84.70
2018-11-12T15:42:52.314Z,85.10
2018-11-12T15:45:23.738Z,85.00
2018-11-12T15:47:52.885Z,85.30
2018-11-12T15:50:37.693Z,85.60
2018-11-12T15:53:06.831Z,86.10
2018-11-12T15:55:35.801Z,86.70
2018-11-12T15:58:04.782Z,86.50
2018-11-12T16:00:33.881Z,86.80
2018-11-12T16:03:02.862Z,87.30
2018-11-12T16:05:32.203Z,87.50
2018-11-12T16:08:01.415Z,87.70
2018-11-12T16:10:31.894Z,88.10
2018-11-12T16:13:00.904Z,88.30
2018-11-12T16:15:31.041Z,88.60
2018-11-12T16:18:00.078Z,88.90
2018-11-12T16:20:30.257Z,88.90
2018-11-12T16:23:00.426Z,89.40
2018-11-12T16:25:30.892Z,89.60
2018-11-12T16:28:01.184Z,89.50
2018-11-12T16:30:30.224Z,90.00
2018-11-12T16:32:59.272Z,90.00
2018-11-12T16:35:28.489Z,90.00
2018-11-12T16:37:57.497Z,90.20
2018-11-12T16:40:27.691Z,90.30
2018-11-12T16:42:56.557Z,90.40
2018-11-12T16:45:26.720Z,90.40
2018-11-12T16:47:55.749Z,90.60
2018-11-12T16:50:24.763Z,90.50
2018-11-12T16:52:53.675Z,90.60
2018-11-12T16:55:24.155Z,90.70
2018-11-12T16:57:53.247Z,90.70
2018-11-12T17:00:23.420Z,90.70
2018-11-12T17:02:53.501Z,90.70
2018-11-12T17:05:24.482Z,90.70
2018-11-12T17:07:53.580Z,90.80
2018-11-12T17:10:24.024Z,90.80
2018-11-12T17:12:53.527Z,90.70
2018-11-12T17:15:28.493Z,90.80
2018-11-12T17:17:57.591Z,90.70
2018-11-12T17:20:26.795Z,91.00
2018-11-12T17:22:55.991Z,91.00
2018-11-12T17:25:25.061Z,91.00
2018-11-12T17:27:54.562Z,91.10
2018-11-12T17:30:23.785Z,91.20
2018-11-12T17:32:52.751Z,91.20
2018-11-12T17:35:22.711Z,91.20
2018-11-12T17:37:51.816Z,91.30
2018-11-12T17:40:24.341Z,91.40
2018-11-12T17:42:54.127Z,91.60
2018-11-12T17:45:24.756Z,91.50
2018-11-12T17:47:54.783Z,91.50
2018-11-12T17:50:23.914Z,91.50
2018-11-12T17:52:53.071Z,91.60
2018-11-12T17:55:22.199Z,91.70
2018-11-12T17:57:51.401Z,91.60
2018-11-12T18:00:22.611Z,91.80
2018-11-12T18:02:51.870Z,91.80
2018-11-12T18:05:22.466Z,91.90
2018-11-12T18:07:51.805Z,91.90
2018-11-12T18:10:20.945Z,92.00
2018-11-12T18:12:49.976Z,92.00
2018-11-12T18:15:20.311Z,92.00
2018-11-12T18:17:49.467Z,92.10
2018-11-12T18:20:21.670Z,92.10
2018-11-12T18:22:51.421Z,92.20
2018-11-12T18:25:20.320Z,92.30
2018-11-12T18:27:49.824Z,92.30
2018-11-12T18:30:24.082Z,92.30
2018-11-12T18:32:54.053Z,92.50
2018-11-12T18:35:23.079Z,92.50
2018-11-12T18:37:52.420Z,92.70
2018-11-12T18:40:23.010Z,92.60
2018-11-12T18:42:52.083Z,92.80
2018-11-12T18:45:22.201Z,92.80
2018-11-12T18:47:51.330Z,92.80
2018-11-12T18:50:23.072Z,92.90
2018-11-12T18:52:52.155Z,92.90
2018-11-12T18:55:21.125Z,92.90
2018-11-12T18:57:53.336Z,93.00
2018-11-12T19:00:23.678Z,93.00
2018-11-12T19:02:53.068Z,93.10
2018-11-12T19:05:25.649Z,93.10
2018-11-12T19:07:55.593Z,93.20
2018-11-12T19:10:26.023Z,93.20
2018-11-12T19:12:54.995Z,93.30
2018-11-12T19:15:27.034Z,93.30
2018-11-12T19:18:01.613Z,93.20
2018-11-12T19:20:30.587Z,93.10
2018-11-12T19:22:59.697Z,93.20
2018-11-12T19:25:28.741Z,93.20
2018-11-12T19:27:57.677Z,93.10
2018-11-12T19:30:27.623Z,93.20
2018-11-12T19:32:56.705Z,93.20
2018-11-12T19:38:12.715Z,93.30
2018-11-12T19:40:41.855Z,93.40
2018-11-12T19:43:11.327Z,93.40
2018-11-12T19:45:40.406Z,93.40
2018-11-12T19:48:09.533Z,93.30
2018-11-12T19:50:38.490Z,93.20
2018-11-12T19:53:07.588Z,93.10
2018-11-12T19:55:36.479Z,93.20
2018-11-12T19:58:08.891Z,93.40
2018-11-12T20:00:38.029Z,93.40
2018-11-12T20:03:06.983Z,93.40
2018-11-12T20:05:35.958Z,93.40
2018-11-12T20:08:04.970Z,93.30
2018-11-12T20:10:33.925Z,93.40
2018-11-12T20:13:07.644Z,93.60
2018-11-12T20:15:36.545Z,93.60
2018-11-12T20:18:05.492Z,93.80
2018-11-12T20:20:34.518Z,93.80
2018-11-12T20:23:03.474Z,93.80
2018-11-12T20:25:32.571Z,93.70
2018-11-12T20:28:01.768Z,93.70
2018-11-12T20:30:33.680Z,93.70
2018-11-12T20:33:02.643Z,93.70
2018-11-12T20:35:31.867Z,93.70
2018-11-12T20:38:01.771Z,93.80
2018-11-12T20:40:30.683Z,93.80
2018-11-12T20:42:59.597Z,93.80
2018-11-12T20:45:28.565Z,93.70
2018-11-12T20:47:57.999Z,93.90
2018-11-12T20:50:26.963Z,93.90
2018-11-12T20:52:56.116Z,93.90
2018-11-12T20:55:25.347Z,93.90
2018-11-12T20:57:54.414Z,94.00
2018-11-12T21:00:24.681Z,93.90
2018-11-12T21:02:54.213Z,94.00
2018-11-12T21:05:24.565Z,94.20
2018-11-12T21:07:53.528Z,94.20
2018-11-12T21:10:22.654Z,94.20
2018-11-12T21:12:52.559Z,94.40
2018-11-12T21:15:22.638Z,94.40
2018-11-12T21:17:52.736Z,94.50
2018-11-12T21:20:22.805Z,94.60
2018-11-12T21:22:51.823Z,94.60
2018-11-12T21:25:22.147Z,94.70
2018-11-12T21:27:51.247Z,94.80
2018-11-12T21:30:22.279Z,94.70
2018-11-12T21:32:51.403Z,94.80
2018-11-12T21:35:20.627Z,95.10
2018-11-12T21:37:50.189Z,94.90
2018-11-12T21:40:21.014Z,94.90
2018-11-12T21:42:50.052Z,94.80
2018-11-12T21:45:21.708Z,94.90
2018-11-12T21:47:50.845Z,95.00
2018-11-12T21:50:21.420Z,95.00
2018-11-12T21:52:50.562Z,95.10
2018-11-12T21:55:19.599Z,95.10
2018-11-12T21:57:48.576Z,95.10
2018-11-12T22:00:23.005Z,95.00
2018-11-12T22:02:54.334Z,94.90
2018-11-12T22:05:23.552Z,94.80
2018-11-12T22:07:52.589Z,94.70
2018-11-12T22:10:21.684Z,94.70
2018-11-12T22:12:51.452Z,94.60
2018-11-12T22:15:20.455Z,94.70
2018-11-12T22:17:49.496Z,94.60
2018-11-12T22:20:19.707Z,94.50
2018-11-12T22:22:48.639Z,94.50
2018-11-12T22:25:18.680Z,94.50
2018-11-12T22:27:48.484Z,94.50
2018-11-12T22:30:25.805Z,94.30
2018-11-12T22:32:55.339Z,94.30
2018-11-12T22:35:24.329Z,94.30
2018-11-12T22:37:53.484Z,94.30
2018-11-12T22:40:22.977Z,94.30
2018-11-12T22:42:52.749Z,94.30
2018-11-12T22:45:24.926Z,94.30
2018-11-12T22:47:54.089Z,94.30
2018-11-12T22:50:23.250Z,94.30
2018-11-12T22:52:52.568Z,94.20
2018-11-12T22:55:21.668Z,94.40
2018-11-12T22:57:51.123Z,94.40
2018-11-12T23:00:26.075Z,94.40
2018-11-12T23:02:55.280Z,94.40
2018-11-12T23:05:24.522Z,94.40
2018-11-12T23:07:54.162Z,94.20
2018-11-12T23:10:23.201Z,94.00
2018-11-12T23:12:52.499Z,93.90
2018-11-12T23:15:21.564Z,93.80
2018-11-12T23:17:50.494Z,93.80
2018-11-12T23:20:21.702Z,93.90
2018-11-12T23:22:51.039Z,93.80
2018-11-12T23:25:20.066Z,93.80
2018-11-12T23:27:49.641Z,93.80
2018-11-12T23:30:19.820Z,93.90
2018-11-12T23:32:50.063Z,94.00
2018-11-12T23:35:20.350Z,94.20
2018-11-12T23:37:49.637Z,94.10
2018-11-12T23:40:18.641Z,94.10
2018-11-12T23:42:48.019Z,94.20
2018-11-12T23:45:17.459Z,94.10
2018-11-12T23:47:46.327Z,94.20
2018-11-12T23:50:18.788Z,94.70
2018-11-12T23:52:48.337Z,94.70
2018-11-12T23:55:17.736Z,94.60
2018-11-12T23:57:47.320Z,94.50
